الصفحة الرئيسية
METAR-TAF:

METAR-TAF

مطار :

فودجا, إيطاليا

دائرة عرض: 41-25-58N, خط طول: 015-32-06E, ارتفاع: 81 متر

مراقبة الطقس الحالي

تاريخ ووقت الإصدار 3ساعات و 37 دقيقة قبل الساعة 14:50UTC
ريح 10 عقدة من الجنوب الغربي
درجة الحرارة 18°درجة مئوية
الرطوبة 34%
ضغط 1020 hPa
الرؤية 10 كم أو أكثر
الغيوم لا تقل 1500 م ولا وجود لمزنة ركامية السحاب الأسود

METAR: LIBF 041450Z 23010KT CAVOK 18/02 Q1020

زمن: 19:27 (18:27 UTC)


TAF: مفقودة

أرصاد الطقس والتوقعات من أكثر من 4000 مطار (تقارير الطقس للمطار METAR والتنبؤ بالطقس بالمطارTAF).

المحطات المتاحة هي النقط الصفراء والحمراء على الخريطة.

حرك المؤشر فوق النقطة لمعرفة اسم المحطة.

ثم انقر لمعرفة أرصاد وتوقعات الطقس.

لتغيير الخارطة: اضغط على الأزرار الخضراء مع رمز الصليب الأسود للتكبير. على الزر الأخضر مع شرطة للتصغير، أو على الأسهم الخضراء للخرائط المجاورة.


METAR-TAF: